createdAt,value
2022-08-16T00:02:11.943Z,18.924255
2022-08-16T00:05:34.950Z,18.904114
2022-08-16T00:08:58.137Z,18.873901
2022-08-16T00:12:23.398Z,18.813477
2022-08-16T00:15:50.779Z,18.763123
2022-08-16T00:19:14.032Z,18.692627
2022-08-16T00:22:39.293Z,18.662415
2022-08-16T00:26:13.675Z,18.672485
2022-08-16T00:29:30.169Z,18.692627
2022-08-16T00:32:56.984Z,18.73291
2022-08-16T00:36:20.412Z,18.753052
2022-08-16T00:39:45.727Z,18.763123
2022-08-16T00:43:11.830Z,18.753052
2022-08-16T00:46:36.223Z,18.803406
2022-08-16T00:50:01.494Z,18.783264
2022-08-16T00:53:26.757Z,18.783264
2022-08-16T00:56:57.365Z,18.702698
2022-08-16T01:00:20.098Z,18.672485
2022-08-16T01:03:42.589Z,18.581848
2022-08-16T01:07:07.846Z,18.541565
2022-08-16T01:10:33.612Z,18.48114
2022-08-16T01:13:58.423Z,18.410645
2022-08-16T01:17:24.159Z,18.390503
2022-08-16T01:20:48.966Z,18.370361
2022-08-16T01:24:44.843Z,18.390503
2022-08-16T01:27:39.533Z,18.370361
2022-08-16T01:31:04.783Z,18.410645
2022-08-16T01:34:30.047Z,18.370361
2022-08-16T01:37:55.352Z,18.370361
2022-08-16T01:41:20.993Z,18.370361
2022-08-16T01:44:45.879Z,18.35022
2022-08-16T01:48:19.344Z,18.35022
2022-08-16T01:51:36.400Z,18.330078
2022-08-16T01:55:01.674Z,18.299866
2022-08-16T01:58:26.952Z,18.35022
2022-08-16T02:01:52.787Z,18.330078
2022-08-16T02:05:17.466Z,18.330078
2022-08-16T02:08:42.741Z,18.289795
2022-08-16T02:12:39.620Z,18.249512
2022-08-16T02:15:35.545Z,18.259583
2022-08-16T02:18:58.559Z,18.259583
2022-08-16T02:22:33.431Z,18.259583
2022-08-16T02:25:51.399Z,18.179016
2022-08-16T02:29:14.364Z,18.09845
2022-08-16T02:32:48.796Z,18.027954
2022-08-16T02:36:04.914Z,18.017883
2022-08-16T02:39:30.390Z,17.987671
2022-08-16T02:42:55.473Z,17.927246
2022-08-16T02:46:20.722Z,17.927246
2022-08-16T02:49:58.836Z,17.897034
2022-08-16T02:53:11.273Z,17.85675
2022-08-16T02:56:36.540Z,17.806396
2022-08-16T03:00:32.184Z,17.786255
2022-08-16T03:03:27.092Z,17.806396
2022-08-16T03:06:56.254Z,17.786255
2022-08-16T03:10:17.586Z,17.816467
2022-08-16T03:13:42.867Z,17.786255
2022-08-16T03:17:08.144Z,17.786255
2022-08-16T03:20:34.261Z,17.705688
2022-08-16T03:23:58.638Z,17.635193
2022-08-16T03:27:23.933Z,17.625122
2022-08-16T03:30:49.150Z,17.625122
2022-08-16T03:34:14.406Z,17.675476
2022-08-16T03:37:49.170Z,17.705688
2022-08-16T03:41:05.110Z,17.705688
2022-08-16T03:44:43.731Z,17.776184
2022-08-16T03:47:58.162Z,17.745972
2022-08-16T03:51:23.735Z,17.735901
2022-08-16T03:54:53.863Z,17.745972
2022-08-16T03:58:11.238Z,17.715759
2022-08-16T04:01:36.531Z,17.715759
2022-08-16T04:05:01.973Z,17.695618
2022-08-16T04:08:27.242Z,17.715759
2022-08-16T04:11:52.329Z,17.745972
2022-08-16T04:15:17.528Z,17.695618
2022-08-16T04:18:42.808Z,17.655334
2022-08-16T04:22:08.451Z,17.655334
2022-08-16T04:25:33.363Z,17.675476
2022-08-16T04:29:14.895Z,17.635193
2022-08-16T04:32:23.871Z,17.695618
2022-08-16T04:35:49.346Z,17.635193
2022-08-16T04:39:15.829Z,17.675476
2022-08-16T04:42:39.710Z,17.695618
2022-08-16T04:46:04.940Z,17.715759
2022-08-16T04:49:38.585Z,17.705688
2022-08-16T04:52:55.593Z,17.745972
2022-08-16T04:56:20.717Z,17.776184
2022-08-16T04:59:45.970Z,17.836609
2022-08-16T05:03:11.313Z,17.85675
2022-08-16T05:06:42.520Z,17.886963
2022-08-16T05:10:01.741Z,17.85675
2022-08-16T05:13:40.120Z,17.776184
2022-08-16T05:16:52.332Z,17.776184
2022-08-16T05:20:35.334Z,17.806396
2022-08-16T05:23:46.648Z,17.836609
2022-08-16T05:27:11.046Z,17.866821
2022-08-16T05:30:35.381Z,17.886963
2022-08-16T05:33:58.749Z,17.886963
2022-08-16T05:37:24.437Z,17.836609
2022-08-16T05:40:57.352Z,17.927246
2022-08-16T05:44:22.719Z,17.987671
2022-08-16T05:47:43.106Z,18.027954
2022-08-16T05:51:05.017Z,18.148804
2022-08-16T05:54:30.307Z,18.249512
2022-08-16T05:57:55.488Z,18.410645
2022-08-16T06:01:20.763Z,18.632202
2022-08-16T06:04:46.030Z,18.873901
2022-08-16T06:08:11.275Z,19.055176
2022-08-16T06:11:36.559Z,19.276733
2022-08-16T06:15:01.962Z,19.508362
2022-08-16T06:18:27.169Z,19.709778
2022-08-16T06:21:54.793Z,19.921265
2022-08-16T06:25:17.706Z,20.142822
2022-08-16T06:28:42.962Z,20.293884
2022-08-16T06:32:08.258Z,20.424805
2022-08-16T06:35:39.009Z,20.434875
2022-08-16T06:38:58.871Z,20.4953
2022-08-16T06:42:24.153Z,20.515442
2022-08-16T06:45:49.441Z,20.505371
2022-08-16T06:49:14.715Z,20.545654
2022-08-16T06:52:57.464Z,20.535583
2022-08-16T06:56:05.240Z,20.505371
2022-08-16T06:59:30.551Z,20.4953
2022-08-16T07:02:56.079Z,20.475159
2022-08-16T07:06:21.805Z,20.4953
2022-08-16T07:09:46.456Z,20.505371
2022-08-16T07:13:12.157Z,20.4953
2022-08-16T07:16:37.037Z,20.475159
2022-08-16T07:20:30.572Z,20.505371
2022-08-16T07:23:37.579Z,20.4953
2022-08-16T07:26:52.832Z,20.475159
2022-08-16T07:30:40.096Z,20.515442
2022-08-16T07:33:51.627Z,20.505371
2022-08-16T07:37:09.608Z,20.565796
2022-08-16T07:40:58.348Z,20.656433
2022-08-16T07:43:59.323Z,20.726929
2022-08-16T07:47:31.391Z,20.837708
2022-08-16T07:50:55.184Z,20.888062
2022-08-16T07:54:20.606Z,20.918274
2022-08-16T07:57:44.482Z,21.008911
2022-08-16T08:01:10.286Z,21.029053
2022-08-16T08:04:32.399Z,21.139832
2022-08-16T08:07:57.568Z,21.24054
2022-08-16T08:11:21.814Z,21.311035
2022-08-16T08:14:46.952Z,21.381531
2022-08-16T08:18:29.574Z,21.441956
2022-08-16T08:21:58.613Z,21.522522
2022-08-16T08:25:03.702Z,21.653442
2022-08-16T08:28:28.038Z,21.643372
2022-08-16T08:31:53.803Z,21.643372
2022-08-16T08:35:18.602Z,21.62323
2022-08-16T08:38:46.088Z,21.693726
2022-08-16T08:42:09.153Z,21.834717
2022-08-16T08:45:47.478Z,21.985779
2022-08-16T08:49:02.259Z,22.086487
2022-08-16T08:52:33.907Z,22.197266
2022-08-16T08:55:58.942Z,22.237549
2022-08-16T08:59:19.974Z,22.328186
2022-08-16T09:02:40.867Z,22.398682
2022-08-16T09:06:06.144Z,22.459106
2022-08-16T09:09:33.243Z,22.569885
2022-08-16T09:12:56.725Z,22.720947
2022-08-16T09:16:57.616Z,22.76123
2022-08-16T09:19:48.506Z,22.912292
2022-08-16T09:23:12.602Z,23.023071
2022-08-16T09:26:43.046Z,23.103638
2022-08-16T09:30:33.220Z,23.204346
2022-08-16T09:33:28.377Z,23.375549
2022-08-16T09:36:53.899Z,23.496399
2022-08-16T09:40:32.054Z,23.50647
2022-08-16T09:43:53.420Z,23.536682
2022-08-16T09:47:10.252Z,23.697815
2022-08-16T09:50:36.904Z,23.929443
2022-08-16T09:54:00.085Z,24.100647
2022-08-16T09:57:25.383Z,24.120789
2022-08-16T10:00:50.635Z,24.251709
2022-08-16T10:04:23.938Z,24.352417
2022-08-16T10:07:44.871Z,24.503479
2022-08-16T10:11:06.472Z,24.674683
2022-08-16T10:14:32.748Z,24.926453
2022-08-16T10:17:59.742Z,25.027161
2022-08-16T10:21:22.684Z,25.198364
2022-08-16T10:24:55.527Z,25.359497
2022-08-16T10:28:28.404Z,25.470276
2022-08-16T10:31:43.389Z,25.581055
2022-08-16T10:35:03.420Z,25.732117
2022-08-16T10:38:28.665Z,25.852966
2022-08-16T10:41:53.972Z,25.953674
2022-08-16T10:45:19.234Z,26.014099
2022-08-16T10:48:47.072Z,26.134949
2022-08-16T10:52:18.480Z,26.255798
2022-08-16T10:55:40.555Z,26.286011
2022-08-16T11:02:57.090Z,25.691833
2022-08-16T11:06:06.824Z,25.429993
2022-08-16T11:09:24.767Z,25.208435
2022-08-16T11:12:41.356Z,25.137939
2022-08-16T11:19:31.876Z,25.14801
2022-08-16T11:22:57.234Z,25.077515
2022-08-16T11:26:23.533Z,24.976807
2022-08-16T11:29:47.827Z,25.047302
2022-08-16T11:33:13.087Z,24.996948
2022-08-16T11:36:38.387Z,24.89624
2022-08-16T11:40:03.778Z,24.805603
2022-08-16T11:43:28.979Z,24.835815
2022-08-16T11:46:54.237Z,24.976807
2022-08-16T11:50:19.516Z,24.976807
2022-08-16T11:53:44.781Z,24.926453
2022-08-16T11:57:10.055Z,24.845886
2022-08-16T12:00:50.924Z,24.906311
2022-08-16T12:04:00.629Z,24.866028
2022-08-16T12:07:25.873Z,24.805603
2022-08-16T12:10:51.168Z,24.725037
2022-08-16T12:14:16.434Z,24.674683
2022-08-16T12:17:41.736Z,24.835815
2022-08-16T12:21:06.953Z,25.097656
2022-08-16T12:24:32.231Z,25.470276
2022-08-16T12:27:57.509Z,25.601196
2022-08-16T12:31:22.778Z,25.641479
2022-08-16T12:34:51.000Z,25.732117
2022-08-16T12:38:38.490Z,25.641479
2022-08-16T12:41:38.570Z,25.540771
2022-08-16T12:45:03.859Z,25.39978
2022-08-16T12:48:33.338Z,25.238647
2022-08-16T12:51:57.773Z,25.137939
2022-08-16T12:55:19.674Z,25.047302
2022-08-16T12:58:50.060Z,24.906311
2022-08-16T13:02:12.458Z,24.775391
2022-08-16T13:05:35.509Z,24.684753
2022-08-16T13:09:00.773Z,24.624329
2022-08-16T13:12:26.022Z,24.654541
2022-08-16T13:15:55.815Z,24.694824
2022-08-16T13:19:16.581Z,24.76532
2022-08-16T13:22:41.970Z,24.876099
2022-08-16T13:26:07.844Z,25.027161
2022-08-16T13:29:39.834Z,25.047302
2022-08-16T13:32:58.106Z,24.986877
2022-08-16T13:36:45.959Z,24.906311
2022-08-16T13:39:48.711Z,24.876099
2022-08-16T13:43:13.919Z,24.89624
2022-08-16T13:46:39.207Z,24.89624
2022-08-16T13:50:05.003Z,24.906311
2022-08-16T13:53:30.336Z,24.866028
2022-08-16T13:56:55.626Z,24.845886
2022-08-16T14:00:21.101Z,24.795532
2022-08-16T14:03:46.544Z,24.795532
2022-08-16T14:07:11.839Z,24.825745
2022-08-16T14:10:37.125Z,24.825745
2022-08-16T14:14:05.268Z,24.845886
2022-08-16T14:17:27.719Z,24.876099
2022-08-16T14:20:53.012Z,24.845886
2022-08-16T14:24:22.598Z,24.825745
2022-08-16T14:27:43.753Z,24.755249
2022-08-16T15:04:01.401Z,24.151001
2022-08-16T15:07:27.821Z,24.100647
2022-08-16T15:10:51.958Z,24.050293
2022-08-16T15:14:17.251Z,24.050293
2022-08-16T15:17:54.370Z,24.080505
2022-08-16T15:21:08.838Z,24.060364
2022-08-16T15:24:34.658Z,24.090576
2022-08-16T15:27:59.132Z,24.060364
2022-08-16T15:31:24.438Z,24.060364
2022-08-16T15:34:49.709Z,24.050293
2022-08-16T15:38:31.968Z,24.030151
2022-08-16T15:41:42.436Z,24.030151
2022-08-16T15:45:11.328Z,24.020081
2022-08-16T15:48:30.814Z,23.979797
2022-08-16T15:51:56.143Z,23.999939
2022-08-16T15:55:23.607Z,24.030151
2022-08-16T15:58:46.651Z,24.060364
2022-08-16T16:02:11.913Z,24.080505
2022-08-16T16:05:37.198Z,24.120789
2022-08-16T16:09:02.503Z,24.130859
2022-08-16T16:12:50.617Z,24.161072
2022-08-16T16:15:53.071Z,24.130859
2022-08-16T16:19:18.337Z,24.130859
2022-08-16T16:22:43.721Z,24.100647
2022-08-16T16:26:09.032Z,24.120789
2022-08-16T16:29:36.973Z,24.130859
2022-08-16T16:32:59.552Z,24.151001
2022-08-16T16:36:28.688Z,24.151001
2022-08-16T16:39:50.196Z,24.161072
2022-08-16T16:43:16.108Z,24.151001
2022-08-16T16:46:42.579Z,24.161072
2022-08-16T16:50:05.958Z,24.120789
2022-08-16T16:53:31.746Z,24.100647
2022-08-16T16:56:56.566Z,24.080505
2022-08-16T17:00:25.689Z,24.080505
2022-08-16T17:03:53.462Z,24.020081
2022-08-16T17:07:12.461Z,23.939514
2022-08-16T17:10:45.663Z,23.929443
2022-08-16T17:14:03.035Z,23.879089
2022-08-16T17:17:29.634Z,23.869019
2022-08-16T17:20:53.598Z,23.798523
2022-08-16T17:24:20.531Z,23.75824
2022-08-16T17:27:44.148Z,23.728027
2022-08-16T17:31:09.445Z,23.687744
2022-08-16T17:34:34.737Z,23.627319
2022-08-16T17:38:00.031Z,23.576965
2022-08-16T17:41:25.374Z,23.546753
2022-08-16T17:44:50.590Z,23.50647
2022-08-16T17:48:15.847Z,23.466187
2022-08-16T17:51:41.124Z,23.415833
2022-08-16T17:55:06.460Z,23.355408
2022-08-16T17:58:31.747Z,23.284912
2022-08-16T18:01:57.146Z,23.204346
2022-08-16T18:05:22.468Z,23.123779
2022-08-16T18:08:48.290Z,23.053284
2022-08-16T18:12:44.253Z,23.00293
2022-08-16T18:15:38.430Z,22.922363
2022-08-16T18:19:03.698Z,22.771301
2022-08-16T18:22:30.649Z,22.620239
2022-08-16T18:25:54.338Z,22.398682
2022-08-16T18:29:19.600Z,22.197266
2022-08-16T18:32:44.935Z,21.985779
2022-08-16T18:36:20.329Z,21.834717
2022-08-16T18:39:35.529Z,21.713867
2022-08-16T18:43:00.765Z,21.49231
2022-08-16T18:46:26.065Z,21.321106
2022-08-16T18:49:51.346Z,21.139832
2022-08-16T18:53:16.607Z,21.008911
2022-08-16T18:56:53.503Z,20.888062
2022-08-16T19:00:07.195Z,20.757141
2022-08-16T19:03:32.475Z,20.585938
2022-08-16T19:06:57.756Z,20.324097
2022-08-16T19:10:23.068Z,20.102539
2022-08-16T19:13:48.334Z,19.981689
2022-08-16T19:17:13.602Z,19.880981
2022-08-16T19:20:38.892Z,19.800415
2022-08-16T19:24:04.182Z,19.86084
2022-08-16T19:27:32.552Z,19.830627
2022-08-16T19:30:54.724Z,19.729919
2022-08-16T19:34:20.000Z,19.548645
2022-08-16T19:37:46.197Z,19.468079
2022-08-16T19:41:10.627Z,19.427795
2022-08-16T19:44:35.908Z,19.437866
2022-08-16T19:48:01.185Z,19.407654
2022-08-16T19:51:26.477Z,19.327087
2022-08-16T19:54:51.808Z,19.306946
2022-08-16T19:58:17.125Z,19.286804
2022-08-16T20:01:43.049Z,19.246521
2022-08-16T20:05:07.797Z,19.206238
2022-08-16T20:08:33.079Z,19.176025
2022-08-16T20:11:58.357Z,19.155884
2022-08-16T20:15:26.753Z,19.155884
2022-08-16T20:18:48.931Z,19.125671
2022-08-16T20:22:25.587Z,19.10553
2022-08-16T20:25:41.223Z,19.075317
2022-08-16T20:29:04.968Z,19.065247
2022-08-16T20:32:34.567Z,19.055176
2022-08-16T20:35:55.423Z,19.065247
2022-08-16T20:39:20.728Z,19.10553
2022-08-16T20:42:46.110Z,19.065247
2022-08-16T20:46:11.336Z,19.055176
2022-08-16T20:49:36.647Z,18.98468
2022-08-16T20:53:02.587Z,18.843689
2022-08-16T20:56:27.862Z,18.73291
2022-08-16T20:59:53.175Z,18.722839
2022-08-16T21:03:18.462Z,18.652344
2022-08-16T21:06:45.449Z,18.622131
2022-08-16T21:10:09.037Z,18.511353
2022-08-16T21:13:36.192Z,18.471069
2022-08-16T21:16:59.631Z,18.330078
2022-08-16T21:20:24.910Z,18.35022
2022-08-16T21:23:50.188Z,18.440857
2022-08-16T21:27:15.482Z,18.501282
2022-08-16T21:30:40.743Z,18.511353
2022-08-16T21:34:06.075Z,18.521423
2022-08-16T21:37:31.353Z,18.450928
2022-08-16T21:40:56.640Z,18.471069
2022-08-16T21:44:22.594Z,18.48114
2022-08-16T21:47:47.881Z,18.450928
2022-08-16T21:56:43.751Z,18.22937
2022-08-16T22:00:08.949Z,18.108521
2022-08-16T22:03:34.179Z,18.078308
2022-08-16T22:06:59.366Z,18.118591
2022-08-16T22:11:01.276Z,18.22937
2022-08-16T22:13:51.386Z,18.209229
2022-08-16T22:17:14.989Z,18.138733
2022-08-16T22:20:40.208Z,18.017883
2022-08-16T22:24:05.408Z,17.927246
2022-08-16T22:27:30.614Z,17.836609
2022-08-16T22:30:55.845Z,17.886963
2022-08-16T22:34:21.052Z,17.897034
2022-08-16T22:38:10.749Z,17.836609
2022-08-16T22:41:11.457Z,17.806396
2022-08-16T22:44:36.654Z,17.85675
2022-08-16T22:48:01.859Z,17.806396
2022-08-16T22:51:27.068Z,17.776184
2022-08-16T22:54:52.289Z,17.735901
2022-08-16T22:58:17.501Z,17.705688
2022-08-16T23:01:42.765Z,17.635193
2022-08-16T23:05:07.900Z,17.625122
2022-08-16T23:08:39.778Z,17.655334
2022-08-16T23:11:58.272Z,17.655334
2022-08-16T23:15:23.473Z,17.635193
2022-08-16T23:18:48.686Z,17.695618
2022-08-16T23:22:13.886Z,17.705688
2022-08-16T23:25:39.115Z,17.695618
2022-08-16T23:29:04.319Z,17.635193
2022-08-16T23:32:29.477Z,17.564697
2022-08-16T23:35:54.669Z,17.484131
2022-08-16T23:39:19.883Z,17.463989
2022-08-16T23:42:52.652Z,17.484131
2022-08-16T23:46:10.269Z,17.544556
2022-08-16T23:49:59.668Z,17.584839
2022-08-16T23:53:01.061Z,17.584839
2022-08-16T23:56:25.939Z,17.544556
2022-08-16T23:59:52.861Z,17.514343
